createdAt,value
2018-10-18T00:00:53.684Z,12.30
2018-10-18T00:03:23.763Z,12.03
2018-10-18T00:05:54.836Z,12.73
2018-10-18T00:08:24.954Z,12.27
2018-10-18T00:10:55.213Z,12.57
2018-10-18T00:13:25.420Z,11.30
2018-10-18T00:15:55.528Z,11.87
2018-10-18T00:18:26.188Z,11.87
2018-10-18T00:20:56.528Z,12.40
2018-10-18T00:23:26.617Z,12.73
2018-10-18T00:25:57.124Z,13.37
2018-10-18T00:28:27.268Z,13.00
2018-10-18T00:30:57.421Z,13.70
2018-10-18T00:33:27.815Z,13.73
2018-10-18T00:35:58.181Z,13.10
2018-10-18T00:38:28.413Z,13.00
2018-10-18T00:40:58.788Z,12.97
2018-10-18T00:43:28.753Z,14.20
2018-10-18T00:45:59.025Z,13.03
2018-10-18T00:48:29.097Z,13.93
2018-10-18T00:50:59.397Z,13.63
2018-10-18T00:53:30.238Z,13.93
2018-10-18T00:56:00.515Z,13.93
2018-10-18T00:58:30.826Z,14.67
2018-10-18T01:01:01.204Z,14.47
2018-10-18T01:03:31.943Z,14.60
2018-10-18T01:06:02.661Z,15.23
2018-10-18T01:08:32.868Z,15.90
2018-10-18T01:11:03.632Z,15.57
2018-10-18T01:13:33.831Z,16.23
2018-10-18T01:16:04.451Z,15.77
2018-10-18T01:18:34.709Z,15.47
2018-10-18T01:21:05.364Z,15.77
2018-10-18T01:23:35.836Z,14.63
2018-10-18T01:26:06.237Z,14.37
2018-10-18T01:28:36.455Z,14.90
2018-10-18T01:31:06.681Z,15.07
2018-10-18T01:33:36.814Z,15.77
2018-10-18T01:36:07.144Z,14.30
2018-10-18T01:38:37.305Z,15.60
2018-10-18T01:41:07.481Z,15.33
2018-10-18T01:43:37.762Z,15.33
2018-10-18T01:46:08.144Z,15.40
2018-10-18T01:48:38.305Z,16.07
2018-10-18T01:51:08.645Z,15.67
2018-10-18T01:53:38.779Z,15.20
2018-10-18T01:56:09.066Z,15.23
2018-10-18T01:58:39.290Z,15.47
2018-10-18T02:01:09.627Z,15.20
2018-10-18T02:03:39.877Z,16.07
2018-10-18T02:06:10.178Z,16.17
2018-10-18T02:08:40.091Z,14.53
2018-10-18T02:11:10.162Z,16.00
2018-10-18T02:13:40.375Z,16.90
2018-10-18T02:16:10.550Z,15.50
2018-10-18T02:18:40.847Z,17.13
2018-10-18T02:21:11.432Z,17.37
2018-10-18T02:23:41.395Z,16.77
2018-10-18T02:26:11.584Z,17.73
2018-10-18T02:28:42.110Z,17.57
2018-10-18T02:31:12.248Z,17.60
2018-10-18T02:33:42.348Z,17.17
2018-10-18T02:36:12.702Z,18.23
2018-10-18T02:38:42.906Z,17.60
2018-10-18T02:41:13.082Z,17.27
2018-10-18T02:43:43.356Z,17.60
2018-10-18T02:46:13.503Z,17.63
2018-10-18T02:48:43.665Z,16.80
2018-10-18T02:51:13.953Z,17.67
2018-10-18T02:53:44.132Z,16.87
2018-10-18T02:56:14.205Z,16.90
2018-10-18T02:58:44.481Z,17.13
2018-10-18T03:01:15.689Z,17.77
2018-10-18T03:03:45.873Z,18.80
2018-10-18T03:06:16.055Z,18.73
2018-10-18T03:08:46.105Z,19.80
2018-10-18T03:11:16.710Z,18.87
2018-10-18T03:13:46.954Z,19.80
2018-10-18T03:16:17.033Z,18.93
2018-10-18T03:18:47.438Z,19.47
2018-10-18T03:21:17.611Z,19.77
2018-10-18T03:23:47.955Z,20.83
2018-10-18T03:26:18.176Z,19.17
2018-10-18T03:28:48.502Z,20.10
2018-10-18T03:31:18.861Z,19.83
2018-10-18T03:33:49.041Z,19.57
2018-10-18T03:36:19.432Z,19.87
2018-10-18T03:38:49.841Z,19.17
2018-10-18T03:41:20.040Z,20.40
2018-10-18T03:43:50.257Z,20.10
2018-10-18T03:46:20.331Z,18.50
2018-10-18T03:48:50.391Z,19.90
2018-10-18T03:51:20.726Z,19.47
2018-10-18T03:53:51.078Z,20.03
2018-10-18T03:56:21.328Z,19.63
2018-10-18T03:58:52.098Z,20.37
2018-10-18T04:01:22.343Z,20.00
2018-10-18T04:03:52.557Z,20.23
2018-10-18T04:06:22.828Z,19.90
2018-10-18T04:08:52.600Z,19.87
2018-10-18T04:11:22.901Z,19.60
2018-10-18T04:13:52.929Z,19.83
2018-10-18T04:16:23.388Z,18.83
2018-10-18T04:18:53.551Z,18.93
2018-10-18T04:21:23.655Z,17.90
2018-10-18T04:23:53.749Z,18.33
2018-10-18T04:26:24.084Z,19.63
2018-10-18T04:28:54.102Z,20.13
2018-10-18T04:31:24.202Z,19.00
2018-10-18T04:33:54.616Z,20.13
2018-10-18T04:36:24.947Z,21.80
2018-10-18T04:38:55.057Z,21.03
2018-10-18T04:41:25.264Z,21.60
2018-10-18T04:43:55.470Z,21.87
2018-10-18T04:46:25.523Z,20.87
2018-10-18T04:48:58.807Z,20.37
2018-10-18T04:51:28.934Z,21.43
2018-10-18T04:53:59.041Z,20.90
2018-10-18T04:56:29.459Z,20.77
2018-10-18T04:58:59.676Z,21.17
2018-10-18T05:01:29.850Z,20.57
2018-10-18T05:04:00.418Z,21.30
2018-10-18T05:06:30.593Z,21.17
2018-10-18T05:09:00.564Z,20.27
2018-10-18T05:11:30.773Z,20.57
2018-10-18T05:14:00.844Z,20.63
2018-10-18T05:16:31.392Z,19.73
2018-10-18T05:19:01.917Z,20.90
2018-10-18T05:21:32.058Z,21.40
2018-10-18T05:24:02.649Z,19.87
2018-10-18T05:26:33.057Z,19.60
2018-10-18T05:29:03.425Z,21.00
2018-10-18T05:31:33.791Z,20.30
2018-10-18T05:34:04.437Z,21.23
2018-10-18T05:36:34.757Z,19.90
2018-10-18T05:39:07.913Z,20.67
2018-10-18T05:41:38.250Z,20.47
2018-10-18T05:44:11.794Z,21.67
2018-10-18T05:46:42.020Z,21.77
2018-10-18T05:49:12.205Z,20.87
2018-10-18T05:51:42.401Z,19.13
2018-10-18T05:54:12.522Z,20.63
2018-10-18T05:56:42.687Z,18.77
2018-10-18T05:59:13.229Z,16.63
2018-10-18T06:01:44.233Z,17.60
2018-10-18T06:04:14.406Z,16.80
2018-10-18T06:06:44.510Z,16.57
2018-10-18T06:09:22.714Z,16.60
2018-10-18T06:11:52.873Z,15.80
2018-10-18T06:14:23.106Z,14.83
2018-10-18T06:16:53.192Z,14.77
2018-10-18T06:19:23.171Z,14.43
2018-10-18T06:21:53.245Z,14.27
2018-10-18T06:24:23.448Z,14.70
2018-10-18T06:26:53.675Z,13.80
2018-10-18T06:29:24.289Z,13.37
2018-10-18T06:31:54.441Z,12.17
2018-10-18T06:34:24.640Z,12.70
2018-10-18T06:36:54.695Z,13.43
2018-10-18T06:39:25.196Z,12.67
2018-10-18T06:42:01.942Z,13.23
2018-10-18T06:44:31.987Z,12.63
2018-10-18T06:47:02.677Z,12.33
2018-10-18T06:49:32.869Z,11.10
2018-10-18T06:52:03.722Z,12.07
2018-10-18T06:54:33.772Z,11.43
2018-10-18T06:57:04.435Z,10.83
2018-10-18T06:59:34.536Z,11.13
2018-10-18T07:02:05.399Z,11.30
2018-10-18T07:04:35.822Z,11.47
2018-10-18T07:07:06.466Z,10.97
2018-10-18T07:09:36.884Z,11.17
2018-10-18T07:12:07.466Z,11.33
2018-10-18T07:14:37.921Z,12.13
2018-10-18T07:17:08.305Z,10.43
2018-10-18T07:19:38.599Z,10.63
2018-10-18T07:22:08.665Z,11.10
2018-10-18T07:24:39.113Z,10.70
2018-10-18T07:27:09.574Z,11.03
2018-10-18T07:29:39.765Z,10.77
2018-10-18T07:32:09.813Z,10.20
2018-10-18T07:34:40.011Z,10.43
2018-10-18T07:37:10.229Z,11.27
2018-10-18T07:39:40.282Z,10.20
2018-10-18T07:42:10.525Z,10.60
2018-10-18T07:44:41.053Z,9.87
2018-10-18T07:47:21.157Z,10.27
2018-10-18T07:49:51.426Z,10.67
2018-10-18T07:52:21.760Z,10.93
2018-10-18T07:54:51.752Z,10.53
2018-10-18T07:57:21.888Z,10.57
2018-10-18T07:59:51.904Z,10.17
2018-10-18T08:02:22.055Z,10.07
2018-10-18T08:04:52.678Z,10.20
2018-10-18T08:07:22.907Z,9.67
2018-10-18T08:09:53.004Z,9.70
2018-10-18T08:12:23.227Z,9.93
2018-10-18T08:14:53.348Z,9.53
2018-10-18T08:17:23.633Z,9.33
2018-10-18T08:19:53.826Z,8.90
2018-10-18T08:22:24.028Z,9.33
2018-10-18T08:24:54.136Z,8.67
2018-10-18T08:27:24.045Z,9.10
2018-10-18T08:29:54.449Z,9.07
2018-10-18T08:32:24.611Z,9.07
2018-10-18T08:34:54.615Z,8.47
2018-10-18T08:37:25.058Z,8.47
2018-10-18T08:39:55.713Z,9.10
2018-10-18T08:42:25.916Z,8.53
2018-10-18T08:44:56.043Z,8.57
2018-10-18T08:47:26.118Z,8.70
2018-10-18T08:49:56.434Z,9.17
2018-10-18T08:52:26.555Z,8.07
2018-10-18T08:54:56.822Z,8.33
2018-10-18T08:57:27.052Z,8.57
2018-10-18T08:59:57.207Z,8.63
2018-10-18T09:02:27.389Z,8.13
2018-10-18T09:04:57.473Z,7.77
2018-10-18T09:07:27.593Z,9.33
2018-10-18T09:09:58.234Z,9.70
2018-10-18T09:12:28.475Z,8.83
2018-10-18T09:14:58.464Z,8.30
2018-10-18T09:17:28.620Z,8.43
2018-10-18T09:19:59.265Z,7.60
2018-10-18T09:22:29.513Z,5.93
2018-10-18T09:24:59.614Z,7.07
2018-10-18T09:27:29.855Z,7.37
2018-10-18T09:30:00.252Z,8.37
2018-10-18T09:32:30.471Z,8.80
2018-10-18T09:35:00.697Z,7.17
2018-10-18T09:37:31.348Z,8.30
2018-10-18T09:40:01.932Z,7.53
2018-10-18T09:42:32.220Z,7.70
2018-10-18T09:45:03.517Z,7.60
2018-10-18T09:47:33.761Z,7.90
2018-10-18T09:50:04.627Z,6.73
2018-10-18T09:52:44.764Z,6.27
2018-10-18T09:55:18.456Z,6.57
2018-10-18T09:57:48.401Z,6.57
2018-10-18T10:00:26.821Z,5.90
2018-10-18T10:03:02.674Z,6.40
2018-10-18T10:05:32.696Z,7.30
2018-10-18T10:08:03.233Z,7.37
2018-10-18T10:10:33.487Z,7.10
2018-10-18T10:13:04.240Z,5.70
2018-10-18T10:15:34.469Z,5.73
2018-10-18T10:18:07.673Z,6.10
2018-10-18T10:20:37.802Z,6.97
2018-10-18T10:23:08.033Z,5.90
2018-10-18T10:25:38.045Z,5.83
2018-10-18T10:28:08.080Z,5.97
2018-10-18T10:30:38.159Z,5.70
2018-10-18T10:33:08.623Z,5.80
2018-10-18T10:35:38.674Z,6.10
2018-10-18T10:38:08.843Z,6.47
2018-10-18T10:40:39.259Z,5.90
2018-10-18T10:43:09.318Z,5.70
2018-10-18T10:45:39.513Z,5.37
2018-10-18T10:48:09.725Z,5.53
2018-10-18T10:50:39.825Z,5.50
2018-10-18T10:53:09.816Z,6.00
2018-10-18T10:55:47.176Z,5.70
2018-10-18T10:59:02.456Z,5.80
2018-10-18T11:01:50.746Z,6.47
2018-10-18T11:04:26.330Z,6.40
2018-10-18T11:07:04.316Z,6.57
2018-10-18T11:09:34.706Z,6.13
2018-10-18T11:12:05.333Z,6.00
2018-10-18T11:14:35.491Z,6.00
2018-10-18T11:17:06.603Z,5.10
2018-10-18T11:19:36.880Z,5.00
2018-10-18T11:22:07.953Z,5.33
2018-10-18T11:24:38.203Z,4.53
2018-10-18T11:27:08.292Z,4.43
2018-10-18T11:29:38.478Z,4.90
2018-10-18T11:32:08.633Z,4.80
2018-10-18T11:34:38.776Z,5.13
2018-10-18T11:37:09.472Z,4.57
2018-10-18T11:39:39.712Z,5.30
2018-10-18T11:42:09.984Z,4.73
2018-10-18T11:44:41.451Z,4.30
2018-10-18T11:47:12.455Z,3.07
2018-10-18T11:49:42.721Z,3.40
2018-10-18T11:52:12.949Z,4.57
2018-10-18T11:54:43.099Z,4.90
2018-10-18T11:57:13.302Z,4.70
2018-10-18T11:59:43.697Z,4.57
2018-10-18T12:02:14.384Z,4.53
2018-10-18T12:04:44.506Z,3.77
2018-10-18T12:07:14.990Z,3.63
2018-10-18T12:09:44.949Z,3.77
2018-10-18T12:12:15.451Z,3.90
2018-10-18T12:14:45.664Z,5.03
2018-10-18T12:17:16.091Z,5.00
2018-10-18T12:19:46.141Z,4.63
2018-10-18T12:22:17.614Z,4.77
2018-10-18T12:24:47.836Z,5.20
2018-10-18T12:27:18.419Z,4.90
2018-10-18T12:29:48.436Z,4.57
2018-10-18T12:32:19.709Z,5.00
2018-10-18T12:34:49.926Z,4.70
2018-10-18T12:37:19.999Z,4.87
2018-10-18T12:39:50.271Z,4.60
2018-10-18T12:42:20.468Z,4.90
2018-10-18T12:44:50.693Z,4.50
2018-10-18T12:47:20.945Z,4.40
2018-10-18T12:49:51.152Z,4.33
2018-10-18T12:52:21.462Z,4.50
2018-10-18T12:54:51.580Z,5.10
2018-10-18T12:57:21.819Z,4.93
2018-10-18T12:59:52.285Z,4.67
2018-10-18T13:02:22.661Z,4.60
2018-10-18T13:04:53.045Z,4.80
2018-10-18T13:07:23.335Z,4.80
2018-10-18T13:09:53.477Z,4.50
2018-10-18T13:12:23.685Z,4.30
2018-10-18T13:14:53.661Z,4.70
2018-10-18T13:17:23.809Z,4.23
2018-10-18T13:20:01.517Z,4.20
2018-10-18T13:22:31.921Z,4.20
2018-10-18T13:25:02.106Z,4.43
2018-10-18T13:27:32.333Z,4.73
2018-10-18T13:30:02.794Z,4.13
2018-10-18T13:32:33.113Z,4.53
2018-10-18T13:35:03.681Z,4.70
2018-10-18T13:37:35.888Z,4.53
2018-10-18T13:40:07.737Z,5.17
2018-10-18T13:42:38.169Z,4.50
2018-10-18T13:45:08.616Z,4.20
2018-10-18T13:47:38.604Z,5.30
2018-10-18T13:50:08.707Z,4.60
2018-10-18T13:52:38.675Z,4.43
2018-10-18T13:55:08.987Z,3.70
2018-10-18T13:57:38.940Z,4.00
2018-10-18T14:00:28.744Z,4.10
2018-10-18T14:02:58.805Z,4.43
2018-10-18T14:05:29.218Z,4.30
2018-10-18T14:07:59.320Z,4.30
2018-10-18T14:10:29.319Z,3.97
2018-10-18T14:12:59.392Z,4.30
2018-10-18T14:15:29.532Z,4.50
2018-10-18T14:17:59.861Z,4.53
2018-10-18T14:20:30.121Z,10.30
2018-10-18T14:23:00.365Z,8.90
2018-10-18T14:25:30.559Z,6.60
2018-10-18T14:28:00.956Z,5.20
2018-10-18T14:30:31.225Z,4.77
2018-10-18T14:33:01.100Z,4.57
2018-10-18T14:35:31.246Z,4.77
2018-10-18T14:38:01.704Z,5.43
2018-10-18T14:40:32.081Z,4.90
2018-10-18T14:43:16.256Z,4.33
2018-10-18T14:45:46.369Z,4.53
2018-10-18T14:48:16.421Z,3.90
2018-10-18T14:50:46.798Z,4.70
2018-10-18T14:53:16.925Z,5.00
2018-10-18T14:55:47.082Z,4.80
2018-10-18T14:58:17.274Z,4.90
2018-10-18T15:00:47.405Z,4.63
2018-10-18T15:03:17.833Z,5.00
2018-10-18T15:05:48.038Z,5.00
2018-10-18T15:08:18.247Z,5.40
2018-10-18T15:10:48.409Z,5.10
2018-10-18T15:13:18.313Z,4.90
2018-10-18T15:15:48.376Z,5.17
2018-10-18T15:18:18.942Z,5.30
2018-10-18T15:20:48.956Z,6.07
2018-10-18T15:23:19.130Z,5.60
2018-10-18T15:25:49.556Z,5.60
2018-10-18T15:28:19.528Z,5.87
2018-10-18T15:30:49.552Z,6.50
2018-10-18T15:33:19.868Z,5.70
2018-10-18T15:35:50.064Z,6.40
2018-10-18T15:38:20.605Z,5.97
2018-10-18T15:40:50.500Z,6.40
2018-10-18T15:43:20.552Z,6.73
2018-10-18T15:45:50.654Z,7.57
2018-10-18T15:48:21.295Z,7.20
2018-10-18T15:50:51.379Z,6.93
2018-10-18T15:53:21.588Z,8.87
2018-10-18T15:55:51.684Z,7.60
2018-10-18T15:58:21.685Z,7.10
2018-10-18T16:00:52.271Z,7.60
2018-10-18T16:03:22.250Z,7.30
2018-10-18T16:05:52.463Z,7.73
2018-10-18T16:08:22.858Z,7.10
2018-10-18T16:10:53.102Z,7.00
2018-10-18T16:13:23.355Z,7.57
2018-10-18T16:15:53.558Z,7.50
2018-10-18T16:18:23.814Z,9.00
2018-10-18T16:20:53.952Z,8.50
2018-10-18T16:23:24.037Z,7.83
2018-10-18T16:25:54.171Z,6.70
2018-10-18T16:28:24.461Z,7.57
2018-10-18T16:30:54.588Z,6.97
2018-10-18T16:33:24.769Z,7.50
2018-10-18T16:35:56.056Z,7.53
2018-10-18T16:38:26.249Z,7.17
2018-10-18T16:40:56.318Z,7.73
2018-10-18T16:43:27.258Z,7.47
2018-10-18T16:45:57.584Z,7.43
2018-10-18T16:48:27.891Z,7.90
2018-10-18T16:50:57.976Z,7.40
2018-10-18T16:53:28.098Z,7.10
2018-10-18T16:55:58.251Z,7.70
2018-10-18T16:58:28.382Z,7.90
2018-10-18T17:00:58.599Z,7.30
2018-10-18T17:03:29.352Z,8.47
2018-10-18T17:05:59.901Z,8.10
2018-10-18T17:08:30.255Z,8.13
2018-10-18T17:11:00.477Z,8.20
2018-10-18T17:13:40.101Z,8.37
2018-10-18T17:16:22.973Z,8.03
2018-10-18T17:19:04.777Z,7.20
2018-10-18T17:21:43.698Z,7.40
2018-10-18T17:27:12.247Z,8.47
2018-10-18T17:32:21.308Z,8.97
2018-10-18T17:34:51.498Z,8.53
2018-10-18T17:37:21.840Z,7.73
2018-10-18T17:39:52.050Z,8.17
2018-10-18T17:42:21.987Z,9.50
2018-10-18T17:44:51.818Z,8.33
2018-10-18T17:47:22.115Z,8.23
2018-10-18T17:49:52.250Z,8.83
2018-10-18T17:52:22.333Z,8.97
2018-10-18T17:54:54.271Z,8.53
2018-10-18T17:57:24.534Z,9.00
2018-10-18T17:59:54.845Z,9.10
2018-10-18T18:02:25.443Z,12.23
2018-10-18T18:04:55.490Z,8.90
2018-10-18T18:07:25.815Z,9.03
2018-10-18T18:09:56.008Z,9.70
2018-10-18T18:12:26.283Z,9.33
2018-10-18T18:14:56.574Z,9.80
2018-10-18T18:17:26.477Z,10.33
2018-10-18T18:19:56.317Z,10.10
2018-10-18T18:22:26.398Z,10.03
2018-10-18T18:24:56.365Z,9.97
2018-10-18T18:27:26.459Z,10.57
2018-10-18T18:29:56.516Z,10.63
2018-10-18T18:32:26.500Z,10.63
2018-10-18T18:34:56.411Z,11.83
2018-10-18T18:37:26.387Z,11.43
2018-10-18T18:39:56.343Z,11.60
2018-10-18T18:42:26.408Z,11.43
2018-10-18T18:48:17.908Z,11.47
2018-10-18T18:50:48.033Z,12.20
2018-10-18T18:53:20.405Z,11.83
2018-10-18T18:55:51.973Z,11.00
2018-10-18T18:58:22.506Z,11.60
2018-10-18T19:00:52.338Z,11.27
2018-10-18T19:03:22.179Z,12.37
2018-10-18T19:05:52.004Z,12.07
2018-10-18T19:08:21.929Z,11.70
2018-10-18T19:10:52.351Z,12.17
2018-10-18T19:13:22.312Z,11.77
2018-10-18T19:15:52.289Z,12.30
2018-10-18T19:18:22.109Z,12.70
2018-10-18T19:20:52.236Z,12.37
2018-10-18T19:23:47.776Z,11.73
2018-10-18T19:26:19.085Z,12.37
2018-10-18T19:29:15.470Z,13.00
2018-10-18T19:32:12.968Z,13.40
2018-10-18T19:34:49.250Z,14.10
2018-10-18T19:37:32.081Z,13.40
2018-10-18T19:40:12.149Z,12.83
2018-10-18T19:42:47.238Z,13.30
2018-10-18T19:45:22.937Z,13.20
2018-10-18T19:47:59.633Z,13.67
2018-10-18T19:50:29.570Z,13.33
2018-10-18T19:53:00.421Z,13.73
2018-10-18T19:56:11.291Z,13.67
2018-10-18T19:58:57.251Z,14.47
2018-10-18T20:01:27.304Z,15.03
2018-10-18T20:03:57.311Z,14.07
2018-10-18T20:06:30.311Z,14.50
2018-10-18T20:09:03.564Z,15.20
2018-10-18T20:11:35.906Z,15.43
2018-10-18T20:14:06.572Z,15.37
2018-10-18T20:16:37.404Z,15.13
2018-10-18T20:22:19.539Z,14.83
2018-10-18T20:24:49.665Z,16.30
2018-10-18T20:27:24.723Z,16.30
2018-10-18T20:32:58.547Z,15.67
2018-10-18T20:35:31.052Z,15.13
2018-10-18T20:38:01.426Z,15.73
2018-10-18T20:41:18.632Z,14.60
2018-10-18T20:43:48.965Z,16.27
2018-10-18T20:46:19.044Z,16.03
2018-10-18T20:48:49.224Z,16.17
2018-10-18T20:51:19.184Z,16.40
2018-10-18T20:53:49.917Z,16.43
2018-10-18T20:59:54.507Z,16.50
2018-10-18T21:02:26.609Z,17.03
2018-10-18T21:04:57.932Z,17.40
2018-10-18T21:11:03.830Z,17.67
2018-10-18T21:20:38.704Z,19.10
2018-10-18T21:23:24.797Z,19.07
2018-10-18T21:26:05.581Z,20.00
2018-10-18T21:28:44.798Z,18.80
2018-10-18T21:31:16.764Z,20.97
2018-10-18T21:33:46.802Z,21.00
2018-10-18T21:39:39.551Z,22.60
2018-10-18T21:42:10.006Z,22.47
2018-10-18T21:44:40.085Z,20.83
2018-10-18T21:47:12.259Z,22.10
2018-10-18T21:49:42.012Z,22.53
2018-10-18T21:52:15.513Z,22.30
2018-10-18T21:54:45.624Z,23.03
2018-10-18T21:57:15.534Z,22.67
2018-10-18T21:59:45.341Z,23.83
2018-10-18T22:02:15.516Z,21.90
2018-10-18T22:04:45.404Z,22.07
2018-10-18T22:07:15.614Z,23.20
2018-10-18T22:09:45.489Z,23.73
2018-10-18T22:12:15.370Z,24.97
2018-10-18T22:14:45.277Z,22.60
2018-10-18T22:17:15.417Z,23.57
2018-10-18T22:19:45.376Z,23.57
2018-10-18T22:22:15.267Z,23.60
2018-10-18T22:25:06.411Z,24.53
2018-10-18T22:31:04.632Z,23.70
2018-10-18T22:33:36.722Z,23.80
2018-10-18T22:36:06.898Z,25.17
2018-10-18T22:38:37.218Z,24.20
2018-10-18T22:41:08.250Z,25.10
2018-10-18T22:43:38.209Z,24.77
2018-10-18T22:46:08.646Z,23.90
2018-10-18T22:48:38.457Z,24.57
2018-10-18T22:51:08.798Z,23.97
2018-10-18T22:53:38.680Z,24.80
2018-10-18T22:56:09.029Z,22.97
2018-10-18T22:58:38.983Z,24.10
2018-10-18T23:01:09.454Z,23.87
2018-10-18T23:03:39.406Z,24.27
2018-10-18T23:06:09.951Z,25.03
2018-10-18T23:08:40.327Z,22.93
2018-10-18T23:11:11.147Z,23.97
2018-10-18T23:13:40.986Z,24.33
2018-10-18T23:16:11.602Z,24.80
2018-10-18T23:18:41.487Z,25.33
2018-10-18T23:21:11.668Z,23.27
2018-10-18T23:23:41.607Z,23.67
2018-10-18T23:26:11.444Z,23.70
2018-10-18T23:28:41.396Z,23.90
2018-10-18T23:31:11.580Z,23.03
2018-10-18T23:33:41.444Z,24.33
2018-10-18T23:36:11.791Z,23.27
2018-10-18T23:38:41.756Z,23.27
2018-10-18T23:41:12.504Z,23.53
2018-10-18T23:43:42.837Z,23.90
2018-10-18T23:46:12.724Z,24.60
2018-10-18T23:48:42.766Z,24.83
2018-10-18T23:51:12.760Z,23.60
2018-10-18T23:53:42.731Z,24.07
2018-10-18T23:56:12.717Z,24.27
2018-10-18T23:58:42.620Z,24.40
